Time;durP1;ratioP1;P1;durP2;ratioP2;P2;SDS_P1;SDS_P2;PMS_P1;PMS_P2;Temp;Humidity;BMP_temperature;BMP_pressure;BME280_temperature;BME280_humidity;BME280_pressure;Samples;Min_cycle;Max_cycle;Signal;HPM_P1;HPM_P2
2022/11/10 00:00:29;;;;;;;5.00;1.80;;;10.90;99.90;;;;;;4990608;28;20495;-51
2022/11/10 00:03:00;;;;;;;4.90;1.77;;;10.90;99.90;;;;;;5014889;23;20500;-50
2022/11/10 00:05:26;;;;;;;3.67;2.00;;;11.00;99.90;;;;;;4994806;28;20589;-51
2022/11/10 00:07:53;;;;;;;2.30;1.90;;;11.00;99.90;;;;;;4992765;28;20568;-51
2022/11/10 00:10:20;;;;;;;1.83;1.63;;;11.00;99.90;;;;;;4992124;28;20567;-50
2022/11/10 00:12:46;;;;;;;2.53;1.70;;;11.00;99.90;;;;;;4992824;28;20483;-50
2022/11/10 00:18:01;;;;;;;2.80;1.87;;;11.10;99.90;;;;;;4988808;28;20587;-51
2022/11/10 00:20:27;;;;;;;2.23;1.63;;;11.20;99.90;;;;;;4989261;28;20464;-50
2022/11/10 00:22:55;;;;;;;6.50;1.90;;;11.20;99.90;;;;;;4994792;28;21048;-50
2022/11/10 00:25:21;;;;;;;6.23;2.20;;;11.30;99.90;;;;;;4992526;28;20460;-50
2022/11/10 00:27:48;;;;;;;3.63;1.77;;;11.30;99.90;;;;;;5003884;28;20459;-51
2022/11/10 00:30:16;;;;;;;5.13;1.73;;;11.40;99.90;;;;;;5007195;28;20507;-51
2022/11/10 00:32:43;;;;;;;5.23;1.80;;;11.40;99.90;;;;;;5010250;28;20508;-51
2022/11/10 00:35:09;;;;;;;7.33;2.60;;;11.40;99.90;;;;;;5012621;28;20511;-51
2022/11/10 00:37:36;;;;;;;6.10;2.30;;;11.40;99.90;;;;;;5013290;28;20460;-56
2022/11/10 00:40:03;;;;;;;5.70;2.17;;;11.40;99.90;;;;;;5014444;28;21035;-51
2022/11/10 00:42:29;;;;;;;1.70;1.60;;;11.40;99.90;;;;;;5005898;28;20504;-51
2022/11/10 00:44:56;;;;;;;4.67;2.10;;;11.40;99.90;;;;;;4996271;28;20460;-51
2022/11/10 00:47:24;;;;;;;8.03;2.03;;;11.40;99.90;;;;;;4996843;28;20460;-51
2022/11/10 00:49:51;;;;;;;5.03;1.70;;;11.40;99.90;;;;;;4990335;28;20501;-50
2022/11/10 00:52:17;;;;;;;3.03;2.13;;;11.40;99.90;;;;;;4988460;28;20535;-51
2022/11/10 00:54:44;;;;;;;3.87;2.40;;;11.40;99.90;;;;;;4990994;28;20519;-50
2022/11/10 00:57:10;;;;;;;3.67;1.83;;;11.50;99.90;;;;;;4995333;28;20464;-51
2022/11/10 00:59:37;;;;;;;5.07;1.80;;;11.50;99.90;;;;;;4993166;28;20848;-50
2022/11/10 01:02:03;;;;;;;4.20;1.97;;;11.50;99.90;;;;;;4991163;28;20495;-50
2022/11/10 01:04:31;;;;;;;7.10;1.90;;;11.50;99.90;;;;;;4994191;28;20464;-52
2022/11/10 01:06:58;;;;;;;17.83;2.47;;;11.50;99.90;;;;;;4992236;28;21116;-51
2022/11/10 01:09:24;;;;;;;3.60;2.03;;;11.50;99.90;;;;;;4991775;28;20964;-51
2022/11/10 01:11:51;;;;;;;4.20;2.00;;;11.50;99.90;;;;;;4990938;28;20480;-51
2022/11/10 01:14:18;;;;;;;8.70;1.80;;;11.50;99.90;;;;;;4990225;28;20457;-50
2022/11/10 01:16:44;;;;;;;5.73;2.17;;;11.50;99.90;;;;;;4990796;28;20547;-50
2022/11/10 01:19:11;;;;;;;4.77;1.80;;;11.50;99.90;;;;;;4983126;28;20541;-51
2022/11/10 01:21:39;;;;;;;4.20;1.90;;;11.50;99.90;;;;;;4989749;28;20516;-51
2022/11/10 01:24:06;;;;;;;5.90;2.00;;;11.50;99.90;;;;;;4991581;28;20550;-51
2022/11/10 01:26:32;;;;;;;2.90;1.90;;;11.50;99.90;;;;;;4985880;28;20528;-51
2022/11/10 01:28:59;;;;;;;5.17;1.90;;;11.40;99.90;;;;;;4988385;28;20465;-50
2022/11/10 01:31:25;;;;;;;5.53;2.20;;;11.50;99.90;;;;;;4985721;28;20482;-51
2022/11/10 01:33:52;;;;;;;3.77;1.93;;;11.50;99.90;;;;;;4990242;28;20456;-51
2022/11/10 01:36:19;;;;;;;3.13;1.97;;;11.50;99.90;;;;;;4989276;28;20535;-51
2022/11/10 01:38:46;;;;;;;4.80;1.93;;;11.50;99.90;;;;;;4989985;28;20460;-51
2022/11/10 01:41:14;;;;;;;2.77;1.80;;;11.50;99.90;;;;;;4984937;28;20958;-50
2022/11/10 01:43:42;;;;;;;8.07;3.00;;;11.50;99.90;;;;;;4985935;28;20547;-51
2022/11/10 01:46:10;;;;;;;3.20;2.03;;;11.50;99.90;;;;;;4979688;28;20551;-51
2022/11/10 01:48:42;;;;;;;8.57;2.67;;;11.60;99.90;;;;;;4985873;28;20567;-51
2022/11/10 01:51:14;;;;;;;5.50;2.50;;;11.60;99.90;;;;;;4982571;28;20493;-51
2022/11/10 01:53:44;;;;;;;4.37;2.43;;;11.60;99.90;;;;;;4991082;28;20460;-52
2022/11/10 01:56:15;;;;;;;12.53;2.30;;;11.60;99.90;;;;;;4989110;28;20468;-51
2022/11/10 01:58:58;;;;;;;4.67;1.93;;;11.60;99.90;;;;;;4992411;28;20543;-51
2022/11/10 02:01:25;;;;;;;10.03;1.97;;;11.60;99.90;;;;;;4987842;28;20484;-51
2022/11/10 02:03:55;;;;;;;4.60;2.17;;;11.60;99.90;;;;;;4989662;28;20456;-51
2022/11/10 02:06:25;;;;;;;7.53;1.90;;;11.70;99.90;;;;;;4986851;28;20903;-51
2022/11/10 02:08:53;;;;;;;2.20;1.70;;;11.60;99.90;;;;;;4987699;28;20522;-51
2022/11/10 02:11:21;;;;;;;7.27;2.27;;;11.70;99.90;;;;;;4989110;28;20520;-52
2022/11/10 02:13:48;;;;;;;6.03;2.40;;;11.70;99.90;;;;;;4984446;28;20477;-50
2022/11/10 02:16:15;;;;;;;7.87;2.00;;;11.70;99.90;;;;;;4987917;28;20460;-51
2022/11/10 02:18:41;;;;;;;3.67;1.90;;;11.70;99.90;;;;;;4987886;28;20468;-50
2022/11/10 02:21:10;;;;;;;11.40;2.20;;;11.70;99.90;;;;;;4987901;28;20473;-51
2022/11/10 02:23:48;;;;;;;2.63;1.60;;;11.60;99.90;;;;;;4988033;28;20835;-50
2022/11/10 02:26:19;;;;;;;2.37;1.60;;;11.70;99.90;;;;;;4978611;28;20460;-50
2022/11/10 02:28:46;;;;;;;5.77;1.80;;;11.60;99.90;;;;;;4987849;28;22535;-51
2022/11/10 02:31:12;;;;;;;4.43;2.10;;;11.60;99.90;;;;;;4986931;28;20504;-51
2022/11/10 02:33:39;;;;;;;6.23;2.53;;;11.60;99.90;;;;;;4986433;28;20527;-51
2022/11/10 02:36:06;;;;;;;9.10;2.90;;;11.60;99.90;;;;;;4987614;28;20472;-50
2022/11/10 02:38:34;;;;;;;8.17;2.27;;;11.60;99.90;;;;;;4985485;28;20532;-51
2022/11/10 02:41:00;;;;;;;6.40;1.90;;;11.60;99.90;;;;;;4988788;28;20485;-51
2022/11/10 02:43:27;;;;;;;6.47;2.57;;;11.70;99.90;;;;;;4989469;28;20522;-51
2022/11/10 02:45:54;;;;;;;5.03;2.03;;;11.60;99.90;;;;;;4988617;28;20461;-50
2022/11/10 02:48:20;;;;;;;6.90;2.90;;;11.60;99.90;;;;;;4986316;28;20465;-50
2022/11/10 02:50:47;;;;;;;3.73;1.80;;;11.70;97.60;;;;;;4988052;28;21113;-51
2022/11/10 02:53:13;;;;;;;4.63;2.43;;;11.60;99.90;;;;;;4988134;28;20465;-50
2022/11/10 02:55:42;;;;;;;3.50;1.83;;;11.60;99.90;;;;;;4985809;28;20461;-50
2022/11/10 02:58:08;;;;;;;6.87;2.27;;;11.60;99.90;;;;;;4987236;28;20496;-52
2022/11/10 03:00:35;;;;;;;9.70;2.13;;;11.60;97.40;;;;;;4983690;28;20954;-51
2022/11/10 03:03:03;;;;;;;4.70;1.80;;;11.70;98.50;;;;;;4988708;28;20488;-51
2022/11/10 03:05:30;;;;;;;6.40;1.93;;;11.60;99.90;;;;;;4984718;28;20528;-51
2022/11/10 03:07:59;;;;;;;12.90;2.30;;;11.60;99.90;;;;;;4984760;28;20464;-50
2022/11/10 03:10:27;;;;;;;4.50;2.00;;;11.60;99.90;;;;;;4990073;28;20483;-51
2022/11/10 03:12:56;;;;;;;7.47;2.53;;;11.60;99.90;;;;;;4996152;28;20477;-51
2022/11/10 03:15:23;;;;;;;3.17;2.50;;;11.60;99.90;;;;;;4994533;28;20456;-50
2022/11/10 03:17:51;;;;;;;6.60;2.30;;;11.60;96.30;;;;;;4986845;28;20460;-51
2022/11/10 03:20:18;;;;;;;10.93;2.57;;;11.60;99.90;;;;;;4997442;28;20453;-51
2022/11/10 03:22:45;;;;;;;4.63;2.10;;;11.60;99.90;;;;;;4994583;28;20484;-51
2022/11/10 03:25:12;;;;;;;6.60;2.13;;;11.60;99.90;;;;;;5004833;28;20993;-51
2022/11/10 03:27:39;;;;;;;6.60;2.20;;;11.60;99.90;;;;;;5006477;28;20441;-51
2022/11/10 03:30:08;;;;;;;9.80;2.27;;;11.60;99.90;;;;;;4999853;28;20480;-50
2022/11/10 03:32:34;;;;;;;6.30;2.23;;;11.60;99.90;;;;;;4993024;28;21034;-50
2022/11/10 03:35:01;;;;;;;6.33;2.13;;;11.50;99.90;;;;;;4984771;28;20460;-50
2022/11/10 03:37:27;;;;;;;7.80;2.00;;;11.50;99.90;;;;;;4988821;28;20992;-50
2022/11/10 03:39:54;;;;;;;3.97;1.80;;;11.50;99.90;;;;;;4992101;28;20456;-51
2022/11/10 03:42:21;;;;;;;6.57;1.97;;;11.40;99.90;;;;;;4988086;28;20516;-51
2022/11/10 03:44:47;;;;;;;7.57;2.03;;;11.40;99.90;;;;;;4986755;28;20497;-51
2022/11/10 03:47:15;;;;;;;4.40;2.23;;;11.30;99.90;;;;;;4982706;28;20496;-50
2022/11/10 03:49:42;;;;;;;8.30;2.17;;;11.30;99.90;;;;;;4987762;28;21204;-50
2022/11/10 03:52:08;;;;;;;8.47;2.97;;;11.30;99.90;;;;;;4983365;28;20484;-50
2022/11/10 03:54:35;;;;;;;5.77;2.60;;;11.20;99.90;;;;;;4990048;28;20538;-51
2022/11/10 03:57:01;;;;;;;6.77;2.20;;;11.10;99.90;;;;;;4986435;28;20492;-51
2022/11/10 03:59:28;;;;;;;13.97;2.23;;;11.20;99.90;;;;;;4987421;28;20546;-51
2022/11/10 04:01:54;;;;;;;6.30;2.47;;;11.20;99.90;;;;;;4987884;28;20574;-51
2022/11/10 04:09:53;;;;;;;5.40;1.87;;;11.20;99.90;;;;;;4985886;28;20460;-50
2022/11/10 04:17:49;;;;;;;1.87;1.53;;;11.10;99.90;;;;;;4986296;28;20502;-52
2022/11/10 04:20:17;;;;;;;12.57;5.63;;;11.00;99.90;;;;;;4984909;28;20461;-50
2022/11/10 04:25:28;;;;;;;4.30;2.30;;;10.90;99.90;;;;;;4979040;28;20456;-51
2022/11/10 04:27:55;;;;;;;4.10;2.30;;;10.80;99.90;;;;;;4984978;28;21028;-50
2022/11/10 04:30:21;;;;;;;9.03;2.33;;;10.80;99.90;;;;;;4982522;28;20516;-51
2022/11/10 04:32:48;;;;;;;9.47;2.00;;;10.70;99.90;;;;;;4984078;28;20484;-50
2022/11/10 04:35:15;;;;;;;6.10;2.20;;;10.70;99.90;;;;;;4986786;28;22223;-51
2022/11/10 04:37:42;;;;;;;10.70;2.50;;;10.60;99.90;;;;;;4988054;28;20929;-51
2022/11/10 04:40:10;;;;;;;10.20;2.07;;;10.50;99.90;;;;;;4984944;28;21061;-50
2022/11/10 04:42:39;;;;;;;7.00;1.97;;;10.50;99.90;;;;;;4989021;28;20542;-51
2022/11/10 04:45:07;;;;;;;9.10;2.60;;;10.40;99.90;;;;;;4987984;28;20552;-50
2022/11/10 04:47:33;;;;;;;12.07;2.63;;;10.40;99.90;;;;;;4988106;28;20498;-51
2022/11/10 04:50:00;;;;;;;5.60;2.00;;;10.40;99.90;;;;;;4989715;28;20551;-51
2022/11/10 04:52:26;;;;;;;8.13;2.37;;;10.30;99.90;;;;;;4995577;28;20540;-51
2022/11/10 04:54:54;;;;;;;6.73;2.27;;;10.30;99.90;;;;;;4991899;28;20560;-51
2022/11/10 04:57:21;;;;;;;3.53;1.97;;;10.20;99.90;;;;;;4991203;28;20559;-51
2022/11/10 04:59:47;;;;;;;12.47;2.33;;;10.20;99.90;;;;;;4987347;28;20551;-51
2022/11/10 05:02:14;;;;;;;5.40;2.43;;;10.20;99.90;;;;;;4990665;28;20607;-51
2022/11/10 05:04:40;;;;;;;7.93;2.23;;;10.10;99.90;;;;;;4993685;28;20551;-50
2022/11/10 05:07:07;;;;;;;6.60;2.00;;;10.00;99.90;;;;;;4988075;28;20467;-51
2022/11/10 05:09:33;;;;;;;7.47;2.30;;;10.00;99.90;;;;;;4986753;28;20522;-51
2022/11/10 05:12:01;;;;;;;3.60;1.97;;;10.00;99.90;;;;;;4991201;28;20574;-50
2022/11/10 05:14:27;;;;;;;3.20;2.30;;;9.90;99.90;;;;;;4988198;28;20551;-51
2022/11/10 05:16:54;;;;;;;2.30;1.50;;;9.90;99.90;;;;;;4991210;28;20535;-51
2022/11/10 05:19:20;;;;;;;4.73;2.13;;;9.80;99.90;;;;;;4991502;28;20555;-50
2022/11/10 05:21:47;;;;;;;8.20;2.67;;;9.70;99.90;;;;;;4987460;28;20498;-51
2022/11/10 05:24:13;;;;;;;11.93;2.43;;;9.70;99.90;;;;;;4982204;28;20555;-51
2022/11/10 05:26:40;;;;;;;5.60;2.03;;;9.70;99.90;;;;;;4986132;28;20540;-51
2022/11/10 05:29:08;;;;;;;9.50;2.43;;;9.70;99.90;;;;;;4990868;28;20543;-51
2022/11/10 05:31:34;;;;;;;5.50;2.63;;;9.60;99.90;;;;;;4987375;28;20493;-51
2022/11/10 05:34:01;;;;;;;7.10;1.93;;;9.50;99.90;;;;;;4990571;28;20894;-51
2022/11/10 05:36:27;;;;;;;8.77;2.50;;;9.50;99.90;;;;;;4995181;28;20544;-51
2022/11/10 05:39:09;;;;;;;7.47;2.90;;;9.50;99.90;;;;;;5001359;28;20485;-51
2022/11/10 05:41:36;;;;;;;4.77;2.07;;;9.50;99.90;;;;;;4995820;28;20519;-51
2022/11/10 05:44:02;;;;;;;10.33;2.40;;;9.50;99.90;;;;;;4986888;28;20548;-51
2022/11/10 05:46:30;;;;;;;5.13;2.10;;;9.40;99.90;;;;;;4993945;28;21010;-50
2022/11/10 05:48:57;;;;;;;5.63;2.50;;;9.40;99.90;;;;;;4994024;28;20465;-51
2022/11/10 05:51:24;;;;;;;6.63;2.33;;;9.30;99.90;;;;;;4988104;28;20485;-51
2022/11/10 05:53:50;;;;;;;7.00;2.20;;;9.30;99.90;;;;;;4989323;28;20559;-51
2022/11/10 05:56:17;;;;;;;3.80;2.17;;;9.20;99.90;;;;;;4993411;28;20927;-50
2022/11/10 05:58:43;;;;;;;7.00;2.37;;;9.30;99.90;;;;;;4987803;28;20543;-51
2022/11/10 06:03:47;;;;;;;5.93;2.07;;;9.20;1.40;;;;;;4987137;28;20492;-53
2022/11/10 06:06:13;;;;;;;7.37;1.80;;;9.20;99.90;;;;;;4989488;28;20559;-52
2022/11/10 06:08:40;;;;;;;9.60;2.63;;;9.20;99.90;;;;;;4986467;28;20465;-52
2022/11/10 06:11:06;;;;;;;8.93;2.40;;;9.10;99.90;;;;;;4983753;28;20495;-55
2022/11/10 06:13:33;;;;;;;7.20;2.20;;;9.10;99.90;;;;;;4983753;28;20567;-54
2022/11/10 06:15:59;;;;;;;12.70;2.43;;;9.10;99.90;;;;;;4985582;28;20567;-55
2022/11/10 06:18:26;;;;;;;4.77;2.17;;;9.10;99.90;;;;;;4989522;28;20547;-54
2022/11/10 06:20:53;;;;;;;5.10;1.90;;;9.00;99.90;;;;;;4983686;28;21110;-55
2022/11/10 06:23:20;;;;;;;5.30;2.30;;;9.10;99.90;;;;;;4977394;28;20546;-53
2022/11/10 06:25:46;;;;;;;7.50;2.83;;;9.10;99.90;;;;;;4988179;28;20496;-54
2022/11/10 06:28:13;;;;;;;10.07;2.80;;;9.20;99.90;;;;;;4991332;28;22045;-53
2022/11/10 06:30:40;;;;;;;9.17;3.00;;;9.10;99.90;;;;;;4985947;28;20617;-53
2022/11/10 06:33:08;;;;;;;12.77;3.30;;;9.10;99.90;;;;;;4986279;28;20571;-55
2022/11/10 06:35:35;;;;;;;5.57;2.77;;;9.00;99.90;;;;;;4986242;28;20553;-53
2022/11/10 06:38:04;;;;;;;9.87;2.30;;;9.00;99.90;;;;;;4986988;28;20511;-53
2022/11/10 06:40:32;;;;;;;5.17;2.10;;;9.00;99.90;;;;;;4986172;28;20553;-54
2022/11/10 06:43:00;;;;;;;4.60;3.10;;;9.00;99.90;;;;;;4984869;28;20480;-54
2022/11/10 06:45:27;;;;;;;2.70;1.83;;;9.00;99.90;;;;;;4990097;28;20492;-54
2022/11/10 06:48:01;;;;;;;6.33;2.93;;;9.00;99.90;;;;;;4979992;28;20464;-53
2022/11/10 06:50:28;;;;;;;4.77;2.33;;;9.00;99.90;;;;;;4988729;28;20931;-54
2022/11/10 06:52:54;;;;;;;6.77;2.77;;;9.00;99.90;;;;;;4984488;28;21028;-53
2022/11/10 06:55:23;;;;;;;10.13;2.93;;;9.10;99.90;;;;;;4988871;28;21036;-54
2022/11/10 06:57:49;;;;;;;11.77;3.27;;;9.10;99.90;;;;;;4986395;28;20824;-53
2022/11/10 07:00:17;;;;;;;14.47;3.30;;;9.20;99.90;;;;;;4985133;28;20994;-52
2022/11/10 07:02:44;;;;;;;12.47;3.40;;;9.30;99.90;;;;;;4984302;28;20485;-54
2022/11/10 07:05:10;;;;;;;7.90;3.40;;;9.30;99.90;;;;;;4988146;28;20551;-54
2022/11/10 07:07:37;;;;;;;7.40;3.27;;;9.40;99.90;;;;;;4987196;28;20485;-54
2022/11/10 07:10:04;;;;;;;9.93;3.40;;;9.50;99.90;;;;;;4989781;28;20552;-53
2022/11/10 07:12:31;;;;;;;9.70;3.60;;;9.60;99.90;;;;;;4990139;28;20550;-54
2022/11/10 07:14:58;;;;;;;8.73;3.70;;;9.70;99.90;;;;;;4989599;28;20539;-54
2022/11/10 07:17:24;;;;;;;10.33;3.30;;;9.80;99.90;;;;;;4981362;28;20492;-54
2022/11/10 07:19:51;;;;;;;13.90;2.90;;;10.00;99.90;;;;;;4983253;28;20527;-57
2022/11/10 07:22:18;;;;;;;7.73;3.03;;;10.10;99.90;;;;;;4996232;28;20481;-53
2022/11/10 07:24:44;;;;;;;5.00;2.70;;;10.10;99.90;;;;;;4986448;28;20903;-53
2022/11/10 07:27:11;;;;;;;9.77;2.70;;;10.10;99.90;;;;;;4984047;28;20604;-54
2022/11/10 07:29:38;;;;;;;5.80;3.27;;;10.20;99.90;;;;;;4986122;28;20555;-53
2022/11/10 07:32:05;;;;;;;13.07;3.50;;;10.20;99.90;;;;;;4989642;28;20567;-52
2022/11/10 07:34:31;;;;;;;8.40;2.63;;;10.20;99.90;;;;;;4989003;28;21026;-53
2022/11/10 07:36:58;;;;;;;7.13;3.27;;;10.20;99.90;;;;;;4988766;28;20551;-54
2022/11/10 07:39:25;;;;;;;6.30;3.00;;;10.20;99.90;;;;;;4986445;28;20457;-53
2022/11/10 07:41:51;;;;;;;10.30;3.27;;;10.20;99.90;;;;;;4986804;28;20571;-53
2022/11/10 07:44:18;;;;;;;11.97;3.70;;;10.20;99.90;;;;;;4984925;28;20461;-53
2022/11/10 07:46:46;;;;;;;6.30;3.10;;;10.20;99.90;;;;;;4991826;28;20491;-54
2022/11/10 07:49:12;;;;;;;7.47;3.03;;;10.10;99.90;;;;;;4989089;28;20500;-53
2022/11/10 07:51:39;;;;;;;8.07;2.77;;;10.20;99.90;;;;;;4993300;28;20479;-53
2022/11/10 07:54:05;;;;;;;13.90;3.00;;;10.40;99.90;;;;;;4983795;28;20954;-53
2022/11/10 07:56:32;;;;;;;12.60;5.03;;;10.70;99.90;;;;;;4988177;28;20562;-54
2022/11/10 07:58:58;;;;;;;12.30;3.70;;;11.00;99.90;;;;;;4986011;28;20468;-53
2022/11/10 08:01:25;;;;;;;11.00;2.57;;;11.10;99.90;;;;;;4987715;28;20496;-55
2022/11/10 08:03:53;;;;;;;10.43;3.27;;;11.30;99.90;;;;;;4988373;28;20460;-57
2022/11/10 08:06:20;;;;;;;14.10;2.73;;;11.70;99.90;;;;;;4983520;28;21004;-55
2022/11/10 08:08:46;;;;;;;6.97;2.90;;;11.80;99.90;;;;;;4983664;28;21020;-54
2022/11/10 08:11:13;;;;;;;7.60;2.90;;;11.90;99.90;;;;;;4978586;28;20468;-53
2022/11/10 08:13:40;;;;;;;9.77;3.10;;;12.10;34.80;;;;;;4983060;28;20462;-54
2022/11/10 08:16:08;;;;;;;11.70;3.10;;;12.50;36.80;;;;;;4988361;28;20542;-53
2022/11/10 08:18:34;;;;;;;5.40;2.80;;;12.30;44.60;;;;;;4991146;28;20492;-54
2022/11/10 08:21:03;;;;;;;7.23;2.30;;;12.50;39.80;;;;;;4980848;28;20604;-54
2022/11/10 08:23:29;;;;;;;12.00;3.63;;;12.40;46.90;;;;;;4981202;28;21080;-53
2022/11/10 08:25:58;;;;;;;8.00;3.43;;;12.40;39.80;;;;;;4992102;28;20492;-53
2022/11/10 08:28:25;;;;;;;10.10;3.90;;;12.20;31.50;;;;;;4992660;28;20893;-53
2022/11/10 08:30:52;;;;;;;15.23;3.70;;;12.40;40.90;;;;;;4986966;28;20460;-53
2022/11/10 08:33:20;;;;;;;29.87;3.97;;;12.60;46.50;;;;;;4988046;28;20566;-54
2022/11/10 08:35:49;;;;;;;11.90;2.83;;;12.60;40.20;;;;;;4983846;28;21011;-53
2022/11/10 08:38:18;;;;;;;6.80;3.80;;;12.50;34.40;;;;;;4987133;28;20460;-55
2022/11/10 08:40:45;;;;;;;6.67;2.97;;;12.40;35.60;;;;;;4990069;28;20473;-54
2022/11/10 08:43:13;;;;;;;8.43;3.80;;;12.10;23.50;;;;;;4993081;28;20631;-52
2022/11/10 08:45:41;;;;;;;14.33;4.40;;;12.20;20.60;;;;;;4981736;28;20461;-52
2022/11/10 08:48:09;;;;;;;14.40;4.07;;;12.20;93.80;;;;;;4990090;28;20546;-51
2022/11/10 08:50:36;;;;;;;9.60;2.93;;;12.10;99.90;;;;;;4988838;28;20463;-52
2022/11/10 08:53:05;;;;;;;10.50;3.90;;;12.10;99.90;;;;;;4988804;28;20516;-52
2022/11/10 08:55:33;;;;;;;7.10;3.00;;;12.10;99.90;;;;;;4978597;28;20497;-52
2022/11/10 08:58:00;;;;;;;13.00;3.77;;;12.30;99.90;;;;;;4987641;28;20978;-52
2022/11/10 09:00:28;;;;;;;10.83;3.27;;;12.40;21.10;;;;;;4988448;28;20493;-53
2022/11/10 09:02:55;;;;;;;12.97;3.80;;;12.10;99.90;;;;;;4987838;28;20494;-52
2022/11/10 09:05:21;;;;;;;15.43;3.73;;;12.20;86.50;;;;;;4991624;28;21000;-52
2022/11/10 09:07:50;;;;;;;6.53;3.10;;;12.30;22.30;;;;;;4991355;28;20492;-54
2022/11/10 09:10:16;;;;;;;10.53;3.57;;;12.20;99.90;;;;;;4992414;28;20558;-54
2022/11/10 09:12:44;;;;;;;6.73;2.97;;;12.30;96.20;;;;;;4991719;28;20566;-52
2022/11/10 09:15:11;;;;;;;7.37;3.00;;;12.30;99.90;;;;;;4980740;28;20509;-53
2022/11/10 09:17:39;;;;;;;11.47;3.77;;;12.30;99.90;;;;;;4989292;28;20464;-53
2022/11/10 09:20:07;;;;;;;11.27;3.73;;;12.30;87.90;;;;;;4984953;28;20493;-52
2022/11/10 09:22:35;;;;;;;10.10;3.90;;;12.40;23.10;;;;;;4990804;28;20480;-53
2022/11/10 09:25:02;;;;;;;11.50;3.87;;;12.50;21.30;;;;;;4988081;28;20599;-54
2022/11/10 09:27:28;;;;;;;8.83;3.90;;;12.90;44.20;;;;;;4994340;28;20603;-52
2022/11/10 09:29:56;;;;;;;11.27;4.00;;;13.60;63.60;;;;;;4989448;28;20488;-53
2022/11/10 09:32:23;;;;;;;17.87;3.43;;;13.30;74.80;;;;;;4991695;28;21125;-53
2022/11/10 09:34:50;;;;;;;34.77;6.80;;;13.90;96.50;;;;;;4999315;28;20889;-53
2022/11/10 09:37:16;;;;;;;11.93;5.00;;;13.90;91.90;;;;;;4987674;28;20534;-53
2022/11/10 09:39:44;;;;;;;12.10;3.63;;;14.20;99.90;;;;;;4987275;28;20488;-53
2022/11/10 09:42:26;;;;;;;12.60;5.20;;;15.00;99.90;;;;;;4991681;28;20534;-53
2022/11/10 09:44:58;;;;;;;16.73;3.50;;;15.30;99.90;;;;;;4998246;28;20961;-53
2022/11/10 09:47:31;;;;;;;8.60;3.13;;;16.10;99.90;;;;;;4987007;28;20465;-52
2022/11/10 09:50:01;;;;;;;11.10;4.47;;;15.80;99.90;;;;;;4991300;28;20468;-53
2022/11/10 09:52:32;;;;;;;12.57;3.53;;;16.00;99.90;;;;;;4993519;28;20919;-53
2022/11/10 09:55:04;;;;;;;8.93;3.53;;;16.10;99.90;;;;;;4992145;28;20549;-53
2022/11/10 09:57:30;;;;;;;14.50;4.37;;;16.00;99.90;;;;;;4988295;28;20488;-53
2022/11/10 09:59:57;;;;;;;10.80;3.63;;;15.30;99.90;;;;;;4989777;28;20527;-53
2022/11/10 10:02:29;;;;;;;11.33;5.37;;;15.70;99.90;;;;;;4983778;28;20564;-53
2022/11/10 10:05:14;;;;;;;10.03;3.60;;;15.50;99.90;;;;;;4987203;28;20559;-53
2022/11/10 10:07:50;;;;;;;6.50;2.67;;;15.70;99.90;;;;;;4991158;28;20463;-53
2022/11/10 10:10:25;;;;;;;10.57;2.97;;;15.30;99.90;;;;;;4991408;28;20464;-53
2022/11/10 10:13:11;;;;;;;12.73;3.27;;;14.60;99.90;;;;;;4988337;28;20488;-54
2022/11/10 10:15:47;;;;;;;5.93;2.57;;;14.40;99.90;;;;;;4983915;28;21045;-52
2022/11/10 10:18:28;;;;;;;7.93;2.63;;;14.30;99.90;;;;;;4978671;28;20577;-53
2022/11/10 10:21:11;;;;;;;10.77;3.23;;;14.00;99.90;;;;;;4990188;28;20875;-53
2022/11/10 10:23:44;;;;;;;8.67;3.03;;;14.10;99.90;;;;;;4991617;28;20475;-53
2022/11/10 10:26:15;;;;;;;13.33;3.83;;;14.30;99.90;;;;;;4996753;28;20468;-54
2022/11/10 10:28:45;;;;;;;12.83;2.97;;;14.40;99.90;;;;;;4990795;28;20930;-53
2022/11/10 10:31:16;;;;;;;9.90;2.90;;;15.10;99.90;;;;;;4990071;28;20529;-53
2022/11/10 10:33:46;;;;;;;9.90;3.47;;;15.00;99.90;;;;;;4987561;28;20520;-53
2022/11/10 10:36:17;;;;;;;7.17;3.10;;;16.30;99.90;;;;;;4988376;28;20543;-53
2022/11/10 10:38:45;;;;;;;5.63;2.53;;;15.90;99.90;;;;;;4984032;28;20950;-53
2022/11/10 10:41:15;;;;;;;7.10;3.37;;;15.60;99.90;;;;;;4991043;28;20531;-53
2022/11/10 10:43:47;;;;;;;8.20;3.10;;;15.10;99.90;;;;;;4981466;28;20542;-53
2022/11/10 10:46:15;;;;;;;9.20;3.63;;;16.10;99.90;;;;;;4985843;28;20468;-52
2022/11/10 10:48:42;;;;;;;13.70;3.93;;;15.90;99.90;;;;;;4983042;28;20547;-53
2022/11/10 10:51:10;;;;;;;7.40;3.00;;;15.40;99.90;;;;;;4986857;28;20496;-52
2022/11/10 10:53:46;;;;;;;5.30;2.70;;;15.10;99.90;;;;;;4991674;28;20520;-51
2022/11/10 10:56:18;;;;;;;10.70;3.67;;;14.80;99.90;;;;;;4991650;28;20465;-51
2022/11/10 10:58:52;;;;;;;15.13;4.90;;;14.60;99.90;;;;;;4986326;28;20482;-51
2022/11/10 11:01:27;;;;;;;15.30;4.03;;;14.20;99.90;;;;;;4983291;28;22297;-50
2022/11/10 11:03:54;;;;;;;14.40;3.13;;;14.00;99.90;;;;;;4983451;28;20970;-51
2022/11/10 11:06:25;;;;;;;13.73;4.20;;;13.70;99.30;;;;;;4988244;28;20491;-52
2022/11/10 11:08:57;;;;;;;9.53;2.77;;;13.60;77.00;;;;;;4985941;28;20866;-52
2022/11/10 11:11:25;;;;;;;6.37;3.10;;;13.60;72.30;;;;;;4986853;28;20507;-52
2022/11/10 11:13:52;;;;;;;12.43;3.40;;;13.60;79.60;;;;;;4984276;28;20571;-52
2022/11/10 11:16:18;;;;;;;15.93;3.30;;;13.40;61.50;;;;;;4984478;28;20950;-52
2022/11/10 11:18:45;;;;;;;9.47;3.27;;;13.50;73.80;;;;;;4989618;28;20460;-51
2022/11/10 11:21:28;;;;;;;10.60;3.33;;;13.80;87.70;;;;;;4988499;28;20542;-52
2022/11/10 11:24:16;;;;;;;11.93;3.20;;;14.20;93.40;;;;;;4982039;28;20858;-52
2022/11/10 11:26:50;;;;;;;5.60;2.70;;;14.30;99.90;;;;;;4985811;28;20559;-52
2022/11/10 11:29:39;;;;;;;8.30;3.13;;;13.90;98.20;;;;;;4984892;28;20552;-52
2022/11/10 11:32:27;;;;;;;15.90;4.53;;;13.90;91.90;;;;;;4987642;28;21099;-52
2022/11/10 11:35:05;;;;;;;10.93;2.80;;;13.80;82.50;;;;;;4982418;28;20885;-51
2022/11/10 11:37:44;;;;;;;12.70;3.30;;;13.80;78.70;;;;;;4988138;28;20506;-52
2022/11/10 11:40:26;;;;;;;8.43;3.00;;;13.60;75.90;;;;;;4989184;28;20880;-52
2022/11/10 11:43:04;;;;;;;12.10;3.50;;;13.40;69.90;;;;;;4983023;28;20481;-52
2022/11/10 11:45:42;;;;;;;7.67;2.70;;;13.60;68.60;;;;;;4988631;28;20488;-52
2022/11/10 11:48:32;;;;;;;9.93;2.77;;;13.80;76.90;;;;;;4983220;28;20464;-52
2022/11/10 11:51:05;;;;;;;8.67;3.60;;;14.10;86.30;;;;;;4984316;28;21306;-53
2022/11/10 11:53:52;;;;;;;10.27;2.80;;;14.20;93.50;;;;;;4993711;28;21012;-53
2022/11/10 11:56:24;;;;;;;8.83;2.93;;;14.60;99.90;;;;;;4989272;28;20492;-52
2022/11/10 11:59:03;;;;;;;10.33;2.70;;;14.80;99.90;;;;;;4986620;28;20464;-52
2022/11/10 12:01:48;;;;;;;9.10;2.47;;;14.60;99.90;;;;;;4979147;28;20491;-53
2022/11/10 12:04:44;;;;;;;12.87;3.30;;;14.40;99.90;;;;;;4984456;28;20948;-52
2022/11/10 12:07:24;;;;;;;17.00;3.53;;;14.40;99.90;;;;;;4984264;28;20496;-52
2022/11/10 12:10:04;;;;;;;12.10;3.40;;;14.20;99.90;;;;;;4994887;23;20531;-58
2022/11/10 12:13:00;;;;;;;11.00;2.50;;;14.00;82.30;;;;;;4984219;28;20880;-60
2022/11/10 12:15:32;;;;;;;7.00;2.73;;;13.80;91.00;;;;;;4988374;28;20465;-59
2022/11/10 12:18:06;;;;;;;10.23;3.33;;;13.80;83.40;;;;;;4989828;28;20487;-59
2022/11/10 12:20:45;;;;;;;7.90;2.80;;;13.80;78.30;;;;;;4983242;28;20460;-59
2022/11/10 12:23:18;;;;;;;6.77;2.50;;;14.10;86.00;;;;;;4981973;28;22285;-58
2022/11/10 12:25:53;;;;;;;8.90;2.80;;;14.80;99.90;;;;;;4980516;28;20462;-59
2022/11/10 12:28:24;;;;;;;17.00;3.20;;;14.80;99.90;;;;;;4984704;28;20483;-59
2022/11/10 12:30:54;;;;;;;11.53;2.77;;;14.80;99.90;;;;;;4988610;28;20456;-59
2022/11/10 12:33:33;;;;;;;11.57;3.60;;;14.70;99.90;;;;;;4986684;28;20474;-59
2022/11/10 12:36:02;;;;;;;6.63;2.73;;;14.40;99.90;;;;;;5002588;28;20456;-59
2022/11/10 12:38:42;;;;;;;8.90;2.60;;;14.20;99.90;;;;;;5000555;28;20476;-62
2022/11/10 12:41:15;;;;;;;8.23;2.53;;;14.10;99.90;;;;;;4994291;28;20516;-59
2022/11/10 12:43:50;;;;;;;5.70;3.07;;;14.00;91.80;;;;;;4988864;28;20953;-66
2022/11/10 12:46:17;;;;;;;10.50;3.87;;;14.00;89.50;;;;;;4989820;28;20467;-59
2022/11/10 12:49:07;;;;;;;10.97;2.90;;;13.90;80.70;;;;;;4986033;28;21025;-59
2022/11/10 12:51:42;;;;;;;10.43;3.40;;;13.80;75.80;;;;;;4975682;28;20473;-59
2022/11/10 12:54:10;;;;;;;9.50;2.80;;;13.80;82.40;;;;;;4980527;28;20925;-59
2022/11/10 12:56:42;;;;;;;7.03;2.50;;;13.80;85.70;;;;;;4986435;28;20456;-59
2022/11/10 12:59:29;;;;;;;10.07;3.20;;;13.80;81.70;;;;;;4980926;28;21082;-59
2022/11/10 13:02:02;;;;;;;5.77;2.30;;;13.80;73.40;;;;;;4983638;28;20549;-58
2022/11/10 13:04:29;;;;;;;14.77;3.70;;;13.80;79.90;;;;;;4989392;28;20514;-59
2022/11/10 13:06:57;;;;;;;8.10;2.87;;;14.00;81.20;;;;;;4989156;28;20568;-59
2022/11/10 13:09:27;;;;;;;13.53;2.50;;;14.80;99.90;;;;;;4983868;28;22094;-58
2022/11/10 13:12:23;;;;;;;9.33;2.53;;;14.80;99.90;;;;;;4987908;28;20514;-58
2022/11/10 13:14:49;;;;;;;12.20;3.10;;;14.80;99.90;;;;;;4947617;28;20488;-59